Time;durP1;ratioP1;P1;durP2;ratioP2;P2;SDS_P1;SDS_P2;PMS_P1;PMS_P2;Temp;Humidity;BMP_temperature;BMP_pressure;BME280_temperature;BME280_humidity;BME280_pressure;Samples;Min_cycle;Max_cycle;Signal;HPM_P1;HPM_P2
2022/10/22 00:01:51;;;;;;;;;;;15.10;99.90;;;;;;5088992;28;19966;-64
2022/10/22 00:04:18;;;;;;;;;;;15.10;99.90;;;;;;5072131;28;19968;-65
2022/10/22 00:06:46;;;;;;;;;;;15.10;99.90;;;;;;5071665;28;19970;-64
2022/10/22 00:09:15;;;;;;;;;;;15.20;99.90;;;;;;5071941;28;19975;-64
2022/10/22 00:11:43;;;;;;;;;;;15.10;99.90;;;;;;5071796;28;19976;-63
2022/10/22 00:14:11;;;;;;;;;;;15.20;99.90;;;;;;5071545;28;19982;-63
2022/10/22 00:16:39;;;;;;;;;;;15.10;99.90;;;;;;5072348;28;20054;-64
2022/10/22 00:19:08;;;;;;;;;;;15.10;99.90;;;;;;5069768;28;20443;-64
2022/10/22 00:21:35;;;;;;;;;;;15.10;99.90;;;;;;5067703;28;20326;-63
2022/10/22 00:24:03;;;;;;;;;;;15.10;99.90;;;;;;5070158;28;19979;-64
2022/10/22 00:26:32;;;;;;;;;;;15.10;99.90;;;;;;5091021;28;20434;-63
2022/10/22 00:29:00;;;;;;;;;;;15.10;99.90;;;;;;5083906;28;19977;-64
2022/10/22 00:31:28;;;;;;;;;;;15.10;99.90;;;;;;5071130;28;19964;-64
2022/10/22 00:33:55;;;;;;;;;;;15.10;99.90;;;;;;5053694;28;20403;-64
2022/10/22 00:36:23;;;;;;;;;;;15.10;99.90;;;;;;5051693;28;19972;-64
2022/10/22 00:38:51;;;;;;;;;;;15.00;99.90;;;;;;5051645;28;19977;-64
2022/10/22 00:41:19;;;;;;;;;;;15.00;99.90;;;;;;5051245;28;19968;-64
2022/10/22 00:43:54;;;;;;;;;;;15.00;99.90;;;;;;5050226;28;20388;-64
2022/10/22 00:46:22;;;;;;;;;;;15.00;99.90;;;;;;5039795;28;19973;-66
2022/10/22 00:48:50;;;;;;;;;;;15.00;99.90;;;;;;5045294;28;20055;-66
2022/10/22 00:51:19;;;;;;;;;;;15.00;99.90;;;;;;5039210;28;19975;-66
2022/10/22 00:53:48;;;;;;;;;;;15.00;99.90;;;;;;5045710;28;19964;-66
2022/10/22 00:56:17;;;;;;;;;;;14.90;99.90;;;;;;5045551;28;20455;-66
2022/10/22 00:58:46;;;;;;;;;;;14.90;99.90;;;;;;5049747;28;19968;-64
2022/10/22 01:01:18;;;;;;;;;;;14.90;99.90;;;;;;5049576;28;19968;-66
2022/10/22 01:03:46;;;;;;;;;;;14.90;99.90;;;;;;5044304;28;19964;-65
2022/10/22 01:06:16;;;;;;;;;;;14.90;99.90;;;;;;5048783;28;19964;-66
2022/10/22 01:08:54;;;;;;;;;;;14.90;99.90;;;;;;5046631;28;20011;-66
2022/10/22 01:11:27;;;;;;;;;;;14.80;99.90;;;;;;5046877;28;19972;-66
2022/10/22 01:13:57;;;;;;;;;;;14.80;99.90;;;;;;5047381;28;19985;-66
2022/10/22 01:16:32;;;;;;;;;;;14.80;99.90;;;;;;5046274;28;20065;-64
2022/10/22 01:19:05;;;;;;;;;;;14.90;99.90;;;;;;5046331;28;19968;-63
2022/10/22 01:21:33;;;;;;;;;;;14.90;99.90;;;;;;5054576;28;19968;-64
2022/10/22 01:24:22;;;;;;;;;;;14.90;99.90;;;;;;5047958;28;19969;-64
2022/10/22 01:27:08;;;;;;;;;;;14.90;99.90;;;;;;5047371;28;19968;-63
2022/10/22 01:29:40;;;;;;;;;;;14.90;99.90;;;;;;5053976;28;19967;-64
2022/10/22 01:32:10;;;;;;;;;;;14.90;99.90;;;;;;5047817;28;19964;-64
2022/10/22 01:34:39;;;;;;;;;;;14.90;99.90;;;;;;5065115;28;19963;-64
2022/10/22 01:37:07;;;;;;;;;;;14.90;99.90;;;;;;5071684;28;20074;-64
2022/10/22 01:39:36;;;;;;;;;;;14.90;99.90;;;;;;5069352;28;19963;-63
2022/10/22 01:42:04;;;;;;;;;;;14.80;99.90;;;;;;5064167;28;19999;-63
2022/10/22 01:44:33;;;;;;;;;;;14.90;99.90;;;;;;5066462;28;20061;-64
2022/10/22 01:47:13;;;;;;;;;;;14.80;99.90;;;;;;5068206;28;20062;-64
2022/10/22 01:49:53;;;;;;;;;;;14.80;99.90;;;;;;5067671;28;19962;-63
2022/10/22 01:52:27;;;;;;;;;;;14.90;99.90;;;;;;5064369;28;19968;-64
2022/10/22 01:54:58;;;;;;;;;;;14.90;99.90;;;;;;5069265;28;19968;-64
2022/10/22 01:57:32;;;;;;;;;;;14.90;99.90;;;;;;5068419;28;19974;-64
2022/10/22 02:00:01;;;;;;;;;;;14.90;99.90;;;;;;5069113;28;19968;-63
2022/10/22 02:02:34;;;;;;;;;;;14.90;99.90;;;;;;5064496;28;19963;-64
2022/10/22 02:05:04;;;;;;;;;;;14.90;99.90;;;;;;5071651;28;20444;-64
2022/10/22 02:07:34;;;;;;;;;;;14.80;99.90;;;;;;5064733;28;19972;-64
2022/10/22 02:10:02;;;;;;;;;;;14.80;99.90;;;;;;5069194;28;19970;-65
2022/10/22 02:12:31;;;;;;;;;;;14.80;99.90;;;;;;5068461;28;19963;-64
2022/10/22 02:15:00;;;;;;;;;;;14.80;99.90;;;;;;5076103;28;20067;-64
2022/10/22 02:17:28;;;;;;;;;;;14.80;99.90;;;;;;5071774;28;20024;-65
2022/10/22 02:20:00;;;;;;;;;;;14.80;99.90;;;;;;5072093;28;19972;-64
2022/10/22 02:22:28;;;;;;;;;;;14.70;99.90;;;;;;5072652;28;19968;-63
2022/10/22 02:24:56;;;;;;;;;;;14.70;99.90;;;;;;5071221;28;19968;-66
2022/10/22 02:27:27;;;;;;;;;;;14.80;99.90;;;;;;5072034;28;19971;-66
2022/10/22 02:29:58;;;;;;;;;;;14.70;99.90;;;;;;5070526;28;19994;-66
2022/10/22 02:32:28;;;;;;;;;;;14.70;99.90;;;;;;5063604;28;19971;-65
2022/10/22 02:34:56;;;;;;;;;;;14.80;99.90;;;;;;5073181;28;19967;-65
2022/10/22 02:37:26;;;;;;;;;;;14.80;99.90;;;;;;5070164;28;19970;-66
2022/10/22 02:39:55;;;;;;;;;;;14.90;99.90;;;;;;5071995;28;19967;-65
2022/10/22 02:42:23;;;;;;;;;;;14.90;99.90;;;;;;5091529;28;20066;-65
2022/10/22 02:44:51;;;;;;;;;;;14.80;99.90;;;;;;5066451;28;20349;-66
2022/10/22 02:47:19;;;;;;;;;;;14.90;99.90;;;;;;5066716;28;19970;-65
2022/10/22 02:49:47;;;;;;;;;;;14.90;99.90;;;;;;5069675;28;19974;-67
2022/10/22 02:52:14;;;;;;;;;;;14.90;99.90;;;;;;5064049;28;19974;-68
2022/10/22 02:54:43;;;;;;;;;;;14.90;99.90;;;;;;5066869;28;19964;-64
2022/10/22 02:57:11;;;;;;;;;;;14.90;99.90;;;;;;5060322;28;19967;-64
2022/10/22 02:59:39;;;;;;;;;;;14.90;99.90;;;;;;5063871;28;19967;-64
2022/10/22 03:02:06;;;;;;;;;;;14.90;99.90;;;;;;5069130;28;20428;-64
2022/10/22 03:04:34;;;;;;;;;;;14.90;99.90;;;;;;5075709;28;19999;-65
2022/10/22 03:07:02;;;;;;;;;;;14.90;99.90;;;;;;5077768;28;20007;-64
2022/10/22 03:09:30;;;;;;;;;;;15.00;99.90;;;;;;5070511;28;19986;-64
2022/10/22 03:11:59;;;;;;;;;;;15.00;99.90;;;;;;5057656;28;19976;-64
2022/10/22 03:14:27;;;;;;;;;;;15.10;99.90;;;;;;5062561;28;19967;-64
2022/10/22 03:16:54;;;;;;;;;;;15.10;99.90;;;;;;5077211;28;19967;-64
2022/10/22 03:19:22;;;;;;;;;;;15.10;99.90;;;;;;5071886;28;20378;-64
2022/10/22 03:21:53;;;;;;;;;;;15.20;99.90;;;;;;5073525;28;19964;-64
2022/10/22 03:24:22;;;;;;;;;;;15.20;99.90;;;;;;5063080;28;20497;-64
2022/10/22 03:26:50;;;;;;;;;;;15.30;99.90;;;;;;5076329;28;20084;-65
2022/10/22 03:29:21;;;;;;;;;;;15.20;99.90;;;;;;5071137;28;19975;-65
2022/10/22 03:31:49;;;;;;;;;;;15.30;99.90;;;;;;5070400;28;19974;-65
2022/10/22 03:34:17;;;;;;;;;;;15.30;99.90;;;;;;5068723;28;19974;-64
2022/10/22 03:36:45;;;;;;;;;;;15.40;99.90;;;;;;5082012;28;20455;-65
2022/10/22 03:39:14;;;;;;;;;;;15.40;99.90;;;;;;5078041;28;19974;-65
2022/10/22 03:41:43;;;;;;;;;;;15.50;99.90;;;;;;5073930;28;19970;-65
2022/10/22 03:44:11;;;;;;;;;;;15.50;99.90;;;;;;5074761;28;20345;-64
2022/10/22 03:46:40;;;;;;;;;;;15.40;99.90;;;;;;5071586;28;19964;-63
2022/10/22 03:49:07;;;;;;;;;;;15.50;99.90;;;;;;5082201;28;19968;-64
2022/10/22 03:51:35;;;;;;;;;;;15.50;99.90;;;;;;5089906;28;19974;-64
2022/10/22 03:54:03;;;;;;;;;;;15.50;99.90;;;;;;5088825;28;19978;-64
2022/10/22 03:56:31;;;;;;;;;;;15.50;99.90;;;;;;5071931;28;20066;-65
2022/10/22 03:59:00;;;;;;;;;;;15.50;99.90;;;;;;5068074;28;19963;-64
2022/10/22 04:01:28;;;;;;;;;;;15.40;99.90;;;;;;5074719;28;19963;-64
2022/10/22 04:03:58;;;;;;;;;;;15.30;99.90;;;;;;5070199;28;19967;-64
2022/10/22 04:06:26;;;;;;;;;;;15.20;99.90;;;;;;5072296;28;20352;-66
2022/10/22 04:08:54;;;;;;;;;;;15.20;99.90;;;;;;5072781;28;20046;-65
2022/10/22 04:11:21;;;;;;;;;;;15.20;99.90;;;;;;5077616;28;20633;-64
2022/10/22 04:13:49;;;;;;;;;;;15.10;99.90;;;;;;5070226;28;19968;-64
2022/10/22 04:16:18;;;;;;;;;;;15.00;99.90;;;;;;5073473;28;19970;-63
2022/10/22 04:18:46;;;;;;;;;;;15.10;99.90;;;;;;5083216;28;19970;-64
2022/10/22 04:21:17;;;;;;;;;;;15.10;99.90;;;;;;5075717;28;19978;-64
2022/10/22 04:23:45;;;;;;;;;;;15.10;99.90;;;;;;5074976;28;19970;-64
2022/10/22 04:26:13;;;;;;;;;;;15.10;99.90;;;;;;5075160;28;19968;-64
2022/10/22 04:28:41;;;;;;;;;;;15.00;99.90;;;;;;5080833;28;19977;-64
2022/10/22 04:31:09;;;;;;;;;;;15.00;99.90;;;;;;5073462;28;20444;-64
2022/10/22 04:33:36;;;;;;;;;;;15.00;99.90;;;;;;5073650;28;19964;-64
2022/10/22 04:36:08;;;;;;;;;;;15.00;99.90;;;;;;5075914;28;20062;-64
2022/10/22 04:38:37;;;;;;;;;;;15.00;99.90;;;;;;5073648;28;20351;-63
2022/10/22 04:41:08;;;;;;;;;;;15.00;99.90;;;;;;5067841;28;20352;-66
2022/10/22 04:43:36;;;;;;;;;;;14.90;99.90;;;;;;5087364;28;20067;-67
2022/10/22 04:46:04;;;;;;;;;;;14.90;99.90;;;;;;5078332;28;19963;-66
2022/10/22 04:48:31;;;;;;;;;;;15.00;99.90;;;;;;5078243;28;19964;-64
2022/10/22 04:50:59;;;;;;;;;;;14.90;99.90;;;;;;5076903;28;19972;-64
2022/10/22 04:53:27;;;;;;;;;;;14.90;99.90;;;;;;5068986;28;19978;-64
2022/10/22 04:56:05;;;;;;;;;;;14.90;99.90;;;;;;5074728;28;19968;-64
2022/10/22 04:58:33;;;;;;;;;;;14.80;99.90;;;;;;5088013;28;19964;-64
2022/10/22 05:01:01;;;;;;;;;;;14.70;99.90;;;;;;5071880;28;20437;-65
2022/10/22 05:03:29;;;;;;;;;;;14.70;99.90;;;;;;5081526;28;20022;-65
2022/10/22 05:06:00;;;;;;;;;;;14.70;99.90;;;;;;5078162;28;19974;-65
2022/10/22 05:08:28;;;;;;;;;;;14.70;99.90;;;;;;5093021;28;20014;-66
2022/10/22 05:10:57;;;;;;;;;;;14.60;99.90;;;;;;5084797;28;19974;-66
2022/10/22 05:13:24;;;;;;;;;;;14.60;99.90;;;;;;5074384;28;19971;-66
2022/10/22 05:15:53;;;;;;;;;;;14.60;99.90;;;;;;5074519;28;19970;-66
2022/10/22 05:18:20;;;;;;;;;;;14.70;99.90;;;;;;5074500;28;20378;-65
2022/10/22 05:20:49;;;;;;;;;;;14.70;99.90;;;;;;5074781;28;20006;-65
2022/10/22 05:23:17;;;;;;;;;;;14.70;99.90;;;;;;5074039;28;19968;-66
2022/10/22 05:25:44;;;;;;;;;;;14.70;99.90;;;;;;5073538;28;19964;-66
2022/10/22 05:28:13;;;;;;;;;;;14.70;99.90;;;;;;5064099;28;19974;-68
2022/10/22 05:30:41;;;;;;;;;;;14.70;99.90;;;;;;5071821;28;20449;-67
2022/10/22 05:33:09;;;;;;;;;;;14.70;99.90;;;;;;5084395;22;20391;-63
2022/10/22 05:35:36;;;;;;;;;;;14.60;99.90;;;;;;5089941;28;19963;-63
2022/10/22 05:38:04;;;;;;;;;;;14.60;99.90;;;;;;5085043;28;20459;-64
2022/10/22 05:40:32;;;;;;;;;;;14.70;99.90;;;;;;5087988;28;19966;-64
2022/10/22 05:43:00;;;;;;;;;;;14.70;99.90;;;;;;5083697;28;19975;-64
2022/10/22 05:45:29;;;;;;;;;;;14.80;99.90;;;;;;5091254;28;19974;-64
2022/10/22 05:47:56;;;;;;;;;;;14.80;99.90;;;;;;5094150;28;20436;-64
2022/10/22 05:50:24;;;;;;;;;;;14.90;99.90;;;;;;5094473;28;20463;-64
2022/10/22 05:52:52;;;;;;;;;;;15.00;99.90;;;;;;5094627;28;20507;-64
2022/10/22 05:55:20;;;;;;;;;;;15.00;99.90;;;;;;5094949;28;20344;-64
2022/10/22 05:57:49;;;;;;;;;;;15.10;99.90;;;;;;5094254;28;20006;-64
2022/10/22 06:00:17;;;;;;;;;;;15.10;99.90;;;;;;5094255;28;19990;-64
2022/10/22 06:02:48;;;;;;;;;;;15.20;99.90;;;;;;5094444;28;19967;-62
2022/10/22 06:05:16;;;;;;;;;;;15.20;99.90;;;;;;5094756;28;20454;-64
2022/10/22 06:07:44;;;;;;;;;;;15.20;99.90;;;;;;5094355;28;19975;-65
2022/10/22 06:10:14;;;;;;;;;;;15.20;99.90;;;;;;5094240;28;19978;-65
2022/10/22 06:12:41;;;;;;;;;;;15.20;99.90;;;;;;5087281;28;19967;-62
2022/10/22 06:15:10;;;;;;;;;;;15.20;99.90;;;;;;5079165;28;19978;-65
2022/10/22 06:17:37;;;;;;;;;;;14.90;99.90;;;;;;5079583;28;19969;-64
2022/10/22 06:20:07;;;;;;;;;;;14.70;99.90;;;;;;5077390;28;19964;-64
2022/10/22 06:22:35;;;;;;;;;;;14.60;99.90;;;;;;5079757;28;19970;-64
2022/10/22 06:25:03;;;;;;;;;;;14.50;99.90;;;;;;5084412;28;20097;-65
2022/10/22 06:27:31;;;;;;;;;;;14.50;99.90;;;;;;5082436;28;19978;-66
2022/10/22 06:29:59;;;;;;;;;;;14.40;99.90;;;;;;5079407;28;20470;-66
2022/10/22 06:32:27;;;;;;;;;;;14.30;99.90;;;;;;5078574;28;19990;-64
2022/10/22 06:34:54;;;;;;;;;;;14.30;99.90;;;;;;5091520;28;19975;-63
2022/10/22 06:37:23;;;;;;;;;;;14.30;99.90;;;;;;5091793;28;19978;-63
2022/10/22 06:39:51;;;;;;;;;;;14.30;99.90;;;;;;5094028;28;19997;-64
2022/10/22 06:42:19;;;;;;;;;;;14.40;99.90;;;;;;5089162;28;19971;-64
2022/10/22 06:44:47;;;;;;;;;;;14.50;99.90;;;;;;5086151;28;19979;-65
2022/10/22 06:47:14;;;;;;;;;;;14.50;99.90;;;;;;5085181;28;19975;-65
2022/10/22 06:49:42;;;;;;;;;;;14.50;99.90;;;;;;5083715;28;19980;-66
2022/10/22 06:52:10;;;;;;;;;;;14.40;99.90;;;;;;5087841;28;20604;-64
2022/10/22 06:54:39;;;;;;;;;;;14.40;99.90;;;;;;5089390;28;19967;-65
2022/10/22 06:57:07;;;;;;;;;;;14.40;99.90;;;;;;5091741;28;19967;-62
2022/10/22 06:59:34;;;;;;;;;;;14.50;99.90;;;;;;5089776;28;19971;-64
2022/10/22 07:02:02;;;;;;;;;;;14.50;99.90;;;;;;5091237;28;20478;-63
2022/10/22 07:04:30;;;;;;;;;;;14.50;99.90;;;;;;5096024;28;19981;-64
2022/10/22 07:06:57;;;;;;;;;;;14.50;99.90;;;;;;5090676;28;19975;-64
2022/10/22 07:09:25;;;;;;;;;;;14.50;99.90;;;;;;5089109;28;19971;-64
2022/10/22 07:11:54;;;;;;;;;;;14.40;99.90;;;;;;5094749;28;19976;-66
2022/10/22 07:14:22;;;;;;;;;;;14.50;99.90;;;;;;5093910;28;19971;-63
2022/10/22 07:16:49;;;;;;;;;;;14.50;99.90;;;;;;5085657;28;19967;-64
2022/10/22 07:19:17;;;;;;;;;;;14.60;99.90;;;;;;5085844;28;20472;-63
2022/10/22 07:21:45;;;;;;;;;;;14.70;99.90;;;;;;5087762;28;20074;-64
2022/10/22 07:24:13;;;;;;;;;;;14.70;99.90;;;;;;5089619;28;20056;-65
2022/10/22 07:26:41;;;;;;;;;;;14.80;99.90;;;;;;5087235;28;20400;-64
2022/10/22 07:29:10;;;;;;;;;;;14.80;99.90;;;;;;5090671;28;20349;-65
2022/10/22 07:31:37;;;;;;;;;;;14.90;99.90;;;;;;5090869;28;19991;-66
2022/10/22 07:34:05;;;;;;;;;;;14.90;99.90;;;;;;5101519;27;19973;-65
2022/10/22 07:36:33;;;;;;;;;;;14.90;99.90;;;;;;5109260;27;19971;-64
2022/10/22 07:39:01;;;;;;;;;;;14.90;99.90;;;;;;5107994;27;19975;-64
2022/10/22 07:41:29;;;;;;;;;;;14.80;99.90;;;;;;5111714;27;19971;-65
2022/10/22 07:43:57;;;;;;;;;;;14.80;99.90;;;;;;5108827;27;19966;-64
2022/10/22 07:46:27;;;;;;;;;;;14.80;99.90;;;;;;5109210;27;19986;-65
2022/10/22 07:48:54;;;;;;;;;;;14.90;99.90;;;;;;5110186;27;19997;-65
2022/10/22 07:51:22;;;;;;;;;;;15.00;99.90;;;;;;5111836;27;21351;-64
2022/10/22 07:53:50;;;;;;;;;;;15.20;99.90;;;;;;5109876;27;20781;-64
2022/10/22 07:56:17;;;;;;;;;;;15.30;99.90;;;;;;5107707;27;19975;-65
2022/10/22 07:58:45;;;;;;;;;;;15.50;99.90;;;;;;5110767;27;19971;-65
2022/10/22 08:01:13;;;;;;;;;;;15.50;99.90;;;;;;5112686;27;20028;-65
2022/10/22 08:03:42;;;;;;;;;;;15.60;99.90;;;;;;5111467;27;19967;-65
2022/10/22 08:06:12;;;;;;;;;;;15.90;99.90;;;;;;5105155;27;20479;-65
2022/10/22 08:08:40;;;;;;;;;;;16.00;99.90;;;;;;5109186;27;19967;-65
2022/10/22 08:11:09;;;;;;;;;;;16.20;99.90;;;;;;5109014;27;19998;-64
2022/10/22 08:13:37;;;;;;;;;;;16.30;99.90;;;;;;5110311;27;20061;-65
2022/10/22 08:16:11;;;;;;;;;;;16.50;99.90;;;;;;5108112;27;19974;-65
2022/10/22 08:18:39;;;;;;;;;;;16.60;99.90;;;;;;5110192;27;19962;-64
2022/10/22 08:21:08;;;;;;;;;;;16.90;99.90;;;;;;5109914;28;20388;-65
2022/10/22 08:23:36;;;;;;;;;;;17.00;99.90;;;;;;5112791;28;19973;-64
2022/10/22 08:26:03;;;;;;;;;;;17.10;99.90;;;;;;5106271;28;19975;-64
2022/10/22 08:28:35;;;;;;;;;;;17.20;99.90;;;;;;5104019;28;20535;-66
2022/10/22 08:31:03;;;;;;;;;;;17.40;99.90;;;;;;5098643;28;20469;-65
2022/10/22 08:33:31;;;;;;;;;;;17.40;99.90;;;;;;5097732;28;19984;-64
2022/10/22 08:35:59;;;;;;;;;;;17.40;99.90;;;;;;5098813;28;19974;-65
2022/10/22 08:38:30;;;;;;;;;;;17.50;99.90;;;;;;5099948;28;19970;-64
2022/10/22 08:41:03;;;;;;;;;;;17.70;99.90;;;;;;5098326;28;20748;-65
2022/10/22 08:43:41;;;;;;;;;;;18.10;99.90;;;;;;5101061;28;21138;-65
2022/10/22 08:46:12;;;;;;;;;;;18.30;99.90;;;;;;5099251;28;19973;-65
2022/10/22 08:48:43;;;;;;;;;;;18.40;99.90;;;;;;5099024;28;19972;-65
2022/10/22 08:51:12;;;;;;;;;;;18.30;99.90;;;;;;5097114;28;19973;-65
2022/10/22 08:53:45;;;;;;;;;;;18.40;99.90;;;;;;5097402;28;19962;-65
2022/10/22 08:56:14;;;;;;;;;;;18.40;99.90;;;;;;5098179;28;19974;-66
2022/10/22 08:58:46;;;;;;;;;;;18.50;99.90;;;;;;5098858;28;20439;-65
2022/10/22 09:01:17;;;;;;;;;;;18.60;99.90;;;;;;5099257;28;20009;-65
2022/10/22 09:03:48;;;;;;;;;;;18.70;99.90;;;;;;5100355;28;19970;-65
2022/10/22 09:06:18;;;;;;;;;;;18.50;99.90;;;;;;5099238;28;19973;-65
2022/10/22 09:08:47;;;;;;;;;;;18.60;99.90;;;;;;5100138;28;19969;-65
2022/10/22 09:11:26;;;;;;;;;;;18.70;99.90;;;;;;5099384;28;19969;-65
2022/10/22 09:13:54;;;;;;;;;;;18.90;99.90;;;;;;5099479;28;19969;-65
2022/10/22 09:16:27;;;;;;;;;;;18.90;99.90;;;;;;5102798;28;19966;-65
2022/10/22 09:19:00;;;;;;;;;;;19.00;99.90;;;;;;5103844;28;19974;-66
2022/10/22 09:21:33;;;;;;;;;;;19.30;99.90;;;;;;5100997;28;19969;-64
2022/10/22 09:24:06;;;;;;;;;;;19.50;99.90;;;;;;5101795;28;19980;-65
2022/10/22 09:26:36;;;;;;;;;;;19.60;99.90;;;;;;5101448;28;19970;-65
2022/10/22 09:29:04;;;;;;;;;;;19.80;99.90;;;;;;5103196;28;20341;-64
2022/10/22 09:31:33;;;;;;;;;;;19.80;99.90;;;;;;5103122;28;20007;-65
2022/10/22 09:34:05;;;;;;;;;;;19.90;99.90;;;;;;5104267;28;19981;-65
2022/10/22 09:36:33;;;;;;;;;;;20.20;99.90;;;;;;5103128;28;20813;-65
2022/10/22 09:39:01;;;;;;;;;;;20.20;99.90;;;;;;5103264;28;19974;-65
2022/10/22 09:41:30;;;;;;;;;;;20.40;99.90;;;;;;5102562;28;19974;-64
2022/10/22 09:43:58;;;;;;;;;;;20.40;99.90;;;;;;5103898;28;20470;-65
2022/10/22 09:46:27;;;;;;;;;;;20.30;99.90;;;;;;5099547;28;19980;-65
2022/10/22 09:49:00;;;;;;;;;;;20.60;99.90;;;;;;5103321;28;19974;-65
2022/10/22 09:51:36;;;;;;;;;;;20.70;99.90;;;;;;5101832;28;19973;-63
2022/10/22 09:54:14;;;;;;;;;;;20.60;99.90;;;;;;5104516;28;20484;-65
2022/10/22 09:56:48;;;;;;;;;;;20.60;99.90;;;;;;5101413;27;19962;-65
2022/10/22 09:59:16;;;;;;;;;;;20.70;99.90;;;;;;5099849;28;19969;-65
2022/10/22 10:01:44;;;;;;;;;;;20.80;99.90;;;;;;5102326;28;20632;-65
2022/10/22 10:04:13;;;;;;;;;;;21.20;99.90;;;;;;5102724;28;20689;-66
2022/10/22 10:06:42;;;;;;;;;;;21.50;99.90;;;;;;5100331;28;20046;-65
2022/10/22 10:09:14;;;;;;;;;;;21.50;99.90;;;;;;5102382;28;20434;-65
2022/10/22 10:11:45;;;;;;;;;;;21.90;99.90;;;;;;5101596;28;19962;-65
2022/10/22 10:14:15;;;;;;;;;;;22.00;99.90;;;;;;5102345;28;19970;-65
2022/10/22 10:16:46;;;;;;;;;;;22.20;99.90;;;;;;5098981;28;19969;-65
2022/10/22 10:19:35;;;;;;;;;;;21.90;99.90;;;;;;5098787;28;19977;-64
2022/10/22 10:22:07;;;;;;;;;;;21.30;99.90;;;;;;5099087;28;20463;-65
2022/10/22 10:24:43;;;;;;;;;;;21.20;99.90;;;;;;5103502;28;20053;-64
2022/10/22 10:27:14;;;;;;;;;;;21.20;99.90;;;;;;5099840;28;19989;-65
2022/10/22 10:29:49;;;;;;;;;;;21.60;99.90;;;;;;5101182;28;19966;-65
2022/10/22 10:32:23;;;;;;;;;;;21.50;99.90;;;;;;5101453;28;19973;-65
2022/10/22 10:34:54;;;;;;;;;;;21.30;99.90;;;;;;5101981;28;19977;-65
2022/10/22 10:37:24;;;;;;;;;;;21.20;99.90;;;;;;5100096;28;20095;-66
2022/10/22 10:40:05;;;;;;;;;;;21.30;99.90;;;;;;5101920;28;19988;-65
2022/10/22 10:42:36;;;;;;;;;;;21.20;99.90;;;;;;5103145;28;19968;-65
2022/10/22 10:45:14;;;;;;;;;;;21.20;99.90;;;;;;5102738;28;20311;-64
2022/10/22 10:47:54;;;;;;;;;;;21.00;99.90;;;;;;5097017;28;19962;-65
2022/10/22 10:50:26;;;;;;;;;;;20.80;99.90;;;;;;5101487;28;20354;-64
2022/10/22 10:52:59;;;;;;;;;;;20.30;99.90;;;;;;5104995;28;20080;-63
2022/10/22 10:55:29;;;;;;;;;;;19.90;99.90;;;;;;5103043;28;19976;-64
2022/10/22 10:58:03;;;;;;;;;;;19.90;99.90;;;;;;5104631;28;19969;-65
2022/10/22 11:00:33;;;;;;;;;;;20.00;99.90;;;;;;5103746;28;20618;-64
2022/10/22 11:03:15;;;;;;;;;;;20.10;99.90;;;;;;5101135;28;19974;-65
2022/10/22 11:05:45;;;;;;;;;;;20.10;99.90;;;;;;5099845;28;19976;-64
2022/10/22 11:08:14;;;;;;;;;;;20.10;99.90;;;;;;5103818;28;19969;-64
2022/10/22 11:10:44;;;;;;;;;;;20.20;99.90;;;;;;5103425;28;19962;-63
2022/10/22 11:13:16;;;;;;;;;;;20.40;99.90;;;;;;5103579;28;19965;-63
2022/10/22 11:15:47;;;;;;;;;;;20.50;99.90;;;;;;5099891;28;19970;-65
2022/10/22 11:18:18;;;;;;;;;;;20.80;99.90;;;;;;5102090;27;19982;-65
2022/10/22 11:20:51;;;;;;;;;;;21.00;99.90;;;;;;5100804;28;19995;-64
2022/10/22 11:23:23;;;;;;;;;;;21.30;99.90;;;;;;5102133;28;19976;-64
2022/10/22 11:25:51;;;;;;;;;;;21.20;99.90;;;;;;5098604;28;20108;-65
2022/10/22 11:28:23;;;;;;;;;;;21.10;99.90;;;;;;5102642;28;19971;-64
2022/10/22 11:30:54;;;;;;;;;;;21.10;99.90;;;;;;5099204;28;19970;-65
2022/10/22 11:33:24;;;;;;;;;;;21.00;99.90;;;;;;5125218;22;20469;-68
2022/10/22 11:35:52;;;;;;;;;;;20.80;99.90;;;;;;5093279;28;19974;-71
2022/10/22 11:38:22;;;;;;;;;;;20.90;99.90;;;;;;5091714;28;19966;-71
2022/10/22 11:40:51;;;;;;;;;;;20.50;99.90;;;;;;5096280;27;19973;-71
2022/10/22 11:43:31;;;;;;;;;;;20.20;99.90;;;;;;5093845;28;19970;-70
2022/10/22 11:46:08;;;;;;;;;;;20.00;99.90;;;;;;5093087;28;19996;-70
2022/10/22 11:48:36;;;;;;;;;;;19.90;99.90;;;;;;5093065;28;19974;-70
2022/10/22 11:51:24;;;;;;;;;;;19.80;99.90;;;;;;5091360;28;20469;-71
2022/10/22 11:53:56;;;;;;;;;;;19.70;99.90;;;;;;5093120;28;19981;-71
2022/10/22 11:56:24;;;;;;;;;;;19.90;99.90;;;;;;5092348;28;20627;-71
2022/10/22 11:58:54;;;;;;;;;;;20.40;99.90;;;;;;5094468;28;19981;-70
2022/10/22 12:01:29;;;;;;;;;;;21.10;99.90;;;;;;5093340;28;20067;-70
2022/10/22 12:04:16;;;;;;;;;;;21.20;99.90;;;;;;5092271;28;20005;-70
2022/10/22 12:06:51;;;;;;;;;;;21.10;99.90;;;;;;5092173;28;19970;-70
2022/10/22 12:09:19;;;;;;;;;;;21.10;99.90;;;;;;5092969;28;19974;-69
2022/10/22 12:11:50;;;;;;;;;;;20.80;99.90;;;;;;5092731;28;19969;-70
2022/10/22 12:14:25;;;;;;;;;;;20.60;99.90;;;;;;5095203;28;19986;-69
2022/10/22 12:16:55;;;;;;;;;;;20.50;99.90;;;;;;5093885;28;20087;-71
2022/10/22 12:19:26;;;;;;;;;;;20.60;99.90;;;;;;5093640;28;19974;-72
2022/10/22 12:21:55;;;;;;;;;;;20.90;99.90;;;;;;5094863;28;19975;-72
2022/10/22 12:24:24;;;;;;;;;;;21.20;99.90;;;;;;5094078;28;19980;-72
2022/10/22 12:26:52;;;;;;;;;;;21.30;99.90;;;;;;5094122;28;19970;-72
2022/10/22 12:29:24;;;;;;;;;;;21.10;99.90;;;;;;5091090;28;19970;-72
2022/10/22 12:31:52;;;;;;;;;;;21.20;99.90;;;;;;5092887;28;20017;-72
2022/10/22 12:34:21;;;;;;;;;;;21.40;99.90;;;;;;5092207;28;19970;-73
2022/10/22 12:36:50;;;;;;;;;;;21.40;99.90;;;;;;5093837;28;19980;-72
2022/10/22 12:39:19;;;;;;;;;;;21.40;99.90;;;;;;5093783;28;19966;-69
2022/10/22 12:41:46;;;;;;;;;;;22.00;99.90;;;;;;5091731;28;21096;-70
2022/10/22 12:44:15;;;;;;;;;;;22.90;99.90;;;;;;5091728;28;19975;-69
2022/10/22 12:46:45;;;;;;;;;;;23.80;99.90;;;;;;5092547;28;19970;-73
2022/10/22 12:49:14;;;;;;;;;;;24.40;99.90;;;;;;5092969;28;19973;-71
2022/10/22 12:51:43;;;;;;;;;;;24.70;99.90;;;;;;5097718;28;20328;-71
2022/10/22 12:54:15;;;;;;;;;;;24.40;99.90;;;;;;5097352;28;20341;-71
2022/10/22 12:56:42;;;;;;;;;;;23.60;99.90;;;;;;5094291;28;20338;-70
2022/10/22 12:59:16;;;;;;;;;;;22.80;99.90;;;;;;5098927;28;19976;-71
2022/10/22 13:01:45;;;;;;;;;;;22.20;99.90;;;;;;5096069;28;19970;-72
2022/10/22 13:04:19;;;;;;;;;;;21.90;99.90;;;;;;5095666;28;19970;-71
2022/10/22 13:06:47;;;;;;;;;;;21.70;99.90;;;;;;5093612;28;19970;-73
2022/10/22 13:09:17;;;;;;;;;;;21.30;99.90;;;;;;5096101;28;19981;-72
2022/10/22 13:11:49;;;;;;;;;;;20.90;99.90;;;;;;5098131;28;20000;-73
2022/10/22 13:14:25;;;;;;;;;;;20.70;99.90;;;;;;5093559;28;20061;-73
2022/10/22 13:17:04;;;;;;;;;;;20.50;99.90;;;;;;5094230;28;19981;-72
2022/10/22 13:19:36;;;;;;;;;;;20.30;99.90;;;;;;5095508;28;19969;-72
2022/10/22 13:22:04;;;;;;;;;;;20.20;99.90;;;;;;5092677;28;19978;-74
2022/10/22 13:24:36;;;;;;;;;;;20.10;99.90;;;;;;5098675;28;20438;-73
2022/10/22 13:27:03;;;;;;;;;;;20.10;99.90;;;;;;5094416;28;20061;-72
2022/10/22 13:29:31;;;;;;;;;;;20.10;99.90;;;;;;5097762;28;20459;-73
2022/10/22 13:32:00;;;;;;;;;;;20.10;99.90;;;;;;5094434;28;19981;-74
2022/10/22 13:34:35;;;;;;;;;;;20.00;99.90;;;;;;5093465;28;19972;-73
2022/10/22 13:37:02;;;;;;;;;;;20.00;99.90;;;;;;5095079;28;20726;-73
2022/10/22 13:39:32;;;;;;;;;;;20.10;99.90;;;;;;5095055;28;19984;-70
2022/10/22 13:42:00;;;;;;;;;;;20.00;99.90;;;;;;5098545;28;19969;-73
2022/10/22 13:44:27;;;;;;;;;;;19.90;99.90;;;;;;5094071;28;19976;-72
2022/10/22 13:46:55;;;;;;;;;;;19.90;99.90;;;;;;5095094;28;21037;-73
2022/10/22 13:49:23;;;;;;;;;;;19.80;99.90;;;;;;5096692;28;19978;-73
2022/10/22 13:51:52;;;;;;;;;;;19.60;99.90;;;;;;5097774;28;19974;-73
2022/10/22 13:54:21;;;;;;;;;;;19.50;99.90;;;;;;5093455;28;20065;-73
2022/10/22 13:56:49;;;;;;;;;;;19.40;99.90;;;;;;5092005;28;20512;-73
2022/10/22 13:59:17;;;;;;;;;;;19.30;99.90;;;;;;5095777;28;19992;-72
2022/10/22 14:01:50;;;;;;;;;;;19.20;99.90;;;;;;5091977;28;20351;-72
2022/10/22 14:04:18;;;;;;;;;;;19.20;99.90;;;;;;5093451;27;19981;-72
2022/10/22 14:06:45;;;;;;;;;;;19.10;99.90;;;;;;5093839;28;19977;-72
2022/10/22 14:09:15;;;;;;;;;;;19.10;99.90;;;;;;5096952;28;20001;-72
2022/10/22 14:11:43;;;;;;;;;;;19.20;99.90;;;;;;5093001;28;19973;-72
2022/10/22 14:14:13;;;;;;;;;;;19.20;99.90;;;;;;5093885;28;19970;-69
2022/10/22 14:16:41;;;;;;;;;;;19.30;99.90;;;;;;5095060;28;20513;-72
2022/10/22 14:19:10;;;;;;;;;;;19.30;99.90;;;;;;5094609;28;19972;-72
2022/10/22 14:21:37;;;;;;;;;;;19.30;99.90;;;;;;5094101;28;20034;-73
2022/10/22 14:24:05;;;;;;;;;;;19.30;99.90;;;;;;5096546;28;19994;-71
2022/10/22 14:26:38;;;;;;;;;;;19.20;99.90;;;;;;5095847;28;20430;-72
2022/10/22 14:29:06;;;;;;;;;;;19.10;99.90;;;;;;5094814;27;19968;-74
2022/10/22 14:31:38;;;;;;;;;;;19.10;99.90;;;;;;5094108;28;19962;-73